Time;durP1;ratioP1;P1;durP2;ratioP2;P2;SDS_P1;SDS_P2;PMS_P1;PMS_P2;Temp;Humidity;BMP_temperature;BMP_pressure;BME280_temperature;BME280_humidity;BME280_pressure;Samples;Min_cycle;Max_cycle;Signal;HPM_P1;HPM_P2
2021/04/06 00:02:07;;;;;;;19.75;11.77;;;;;;;;;;5071511;28;20166;-52
2021/04/06 00:04:35;;;;;;;18.73;11.20;;;;;;;;;;5071419;28;20334;-52
2021/04/06 00:07:03;;;;;;;20.73;10.98;;;;;;;;;;5071220;28;20188;-53
2021/04/06 00:09:30;;;;;;;16.60;9.30;;;;;;;;;;5071390;28;20249;-53
2021/04/06 00:11:57;;;;;;;18.67;10.10;;;;;;;;;;5071363;28;20856;-52
2021/04/06 00:14:24;;;;;;;17.85;8.00;;;;;;;;;;5071221;28;20194;-54
2021/04/06 00:16:51;;;;;;;13.18;7.50;;;;;;;;;;5071110;28;20248;-52
2021/04/06 00:19:18;;;;;;;10.70;7.95;;;;;;;;;;5071209;28;20174;-54
2021/04/06 00:21:47;;;;;;;15.73;8.25;;;;;;;;;;5071148;28;20173;-52
2021/04/06 00:24:13;;;;;;;20.23;12.10;;;;;;;;;;5071028;28;20202;-55
2021/04/06 00:26:53;;;;;;;21.95;12.15;;;;;;;;;;5071007;28;20189;-55
2021/04/06 00:29:20;;;;;;;21.60;12.95;;;;;;;;;;5071068;28;20158;-52
2021/04/06 00:31:47;;;;;;;21.15;11.70;;;;;;;;;;5071089;28;20173;-53
2021/04/06 00:34:14;;;;;;;18.17;12.23;;;;;;;;;;5070897;28;20198;-55
2021/04/06 00:36:41;;;;;;;18.45;10.50;;;;;;;;;;5070757;28;20251;-52
2021/04/06 00:39:07;;;;;;;14.65;8.20;;;;;;;;;;5070913;28;20177;-52
2021/04/06 00:41:33;;;;;;;14.40;8.40;;;;;;;;;;5070996;28;20239;-52
2021/04/06 00:43:59;;;;;;;8.93;6.97;;;;;;;;;;5070707;28;20843;-52
2021/04/06 00:46:27;;;;;;;13.20;5.88;;;;;;;;;;5070814;28;20408;-51
2021/04/06 00:48:55;;;;;;;8.02;5.60;;;;;;;;;;5070085;28;20856;-52
2021/04/06 00:51:21;;;;;;;10.27;4.88;;;;;;;;;;5071014;28;20245;-51
2021/04/06 00:53:48;;;;;;;6.18;5.10;;;;;;;;;;5070723;28;20194;-53
2021/04/06 00:56:14;;;;;;;7.43;5.38;;;;;;;;;;5070660;28;20177;-55
2021/04/06 00:58:42;;;;;;;14.25;4.75;;;;;;;;;;5070929;28;20232;-56
2021/04/06 01:01:09;;;;;;;10.52;5.15;;;;;;;;;;5070541;28;20173;-54
2021/04/06 01:03:37;;;;;;;9.95;4.85;;;;;;;;;;5070265;28;20212;-52
2021/04/06 01:06:03;;;;;;;5.85;4.35;;;;;;;;;;5070317;28;20167;-52
2021/04/06 01:08:30;;;;;;;9.33;5.73;;;;;;;;;;5070912;28;20220;-52
2021/04/06 01:10:56;;;;;;;11.88;6.82;;;;;;;;;;5070576;28;20400;-52
2021/04/06 01:13:23;;;;;;;9.45;5.28;;;;;;;;;;5070571;28;20265;-54
2021/04/06 01:15:51;;;;;;;9.75;5.32;;;;;;;;;;5070184;28;20169;-52
2021/04/06 01:18:18;;;;;;;9.55;4.82;;;;;;;;;;5070624;28;20248;-52
2021/04/06 01:20:44;;;;;;;5.82;3.55;;;;;;;;;;5070536;28;20163;-51
2021/04/06 01:23:10;;;;;;;10.48;3.08;;;;;;;;;;5070424;28;20579;-51
2021/04/06 01:25:42;;;;;;;10.32;2.70;;;;;;;;;;5070241;28;20162;-51
2021/04/06 01:28:09;;;;;;;4.72;3.10;;;;;;;;;;5070578;28;20153;-51
2021/04/06 01:30:48;;;;;;;6.07;4.00;;;;;;;;;;5070400;28;20169;-52
2021/04/06 01:33:18;;;;;;;4.10;3.30;;;;;;;;;;5070387;28;20186;-51
2021/04/06 01:35:51;;;;;;;8.10;4.00;;;;;;;;;;5070174;28;20173;-51
2021/04/06 01:38:18;;;;;;;7.30;4.00;;;;;;;;;;5070474;28;20165;-52
2021/04/06 01:40:45;;;;;;;9.27;3.17;;;;;;;;;;5070275;28;20605;-51
2021/04/06 01:43:12;;;;;;;7.97;2.90;;;;;;;;;;5070087;28;20217;-54
2021/04/06 01:45:44;;;;;;;3.45;2.60;;;;;;;;;;5070100;28;20237;-51
2021/04/06 01:48:14;;;;;;;11.98;2.58;;;;;;;;;;5070442;28;20174;-54
2021/04/06 01:50:41;;;;;;;4.55;2.35;;;;;;;;;;5070181;28;20177;-52
2021/04/06 01:53:07;;;;;;;7.15;2.65;;;;;;;;;;5070205;28;20165;-51
2021/04/06 01:55:35;;;;;;;7.80;2.85;;;;;;;;;;5069864;28;20166;-51
2021/04/06 01:58:02;;;;;;;9.55;2.63;;;;;;;;;;5070289;28;20165;-51
2021/04/06 02:00:42;;;;;;;11.10;2.65;;;;;;;;;;5073081;28;20162;-54
2021/04/06 02:03:09;;;;;;;5.45;2.28;;;;;;;;;;5073800;28;20165;-54
2021/04/06 02:05:35;;;;;;;10.68;2.30;;;;;;;;;;5073536;28;20189;-54
2021/04/06 02:08:09;;;;;;;5.60;2.10;;;;;;;;;;5073721;28;20169;-54
2021/04/06 02:10:35;;;;;;;4.85;1.80;;;;;;;;;;5073838;28;20147;-51
2021/04/06 02:13:11;;;;;;;5.43;2.25;;;;;;;;;;5073611;28;20202;-51
2021/04/06 02:15:38;;;;;;;13.35;3.25;;;;;;;;;;5073333;28;20169;-53
2021/04/06 02:18:04;;;;;;;4.55;1.85;;;;;;;;;;5073616;28;20176;-53
2021/04/06 02:20:30;;;;;;;4.18;2.47;;;;;;;;;;5073528;28;20197;-53
2021/04/06 02:23:00;;;;;;;3.87;2.27;;;;;;;;;;5073416;28;20202;-53
2021/04/06 02:25:26;;;;;;;7.65;2.35;;;;;;;;;;5073095;28;20505;-51
2021/04/06 02:27:53;;;;;;;3.83;2.30;;;;;;;;;;5073351;28;20223;-52
2021/04/06 02:30:19;;;;;;;6.80;2.60;;;;;;;;;;5073439;28;20253;-52
2021/04/06 02:32:45;;;;;;;4.03;2.80;;;;;;;;;;5073239;28;20177;-51
2021/04/06 02:35:12;;;;;;;6.73;2.93;;;;;;;;;;5073481;28;20182;-51
2021/04/06 02:37:41;;;;;;;10.43;3.63;;;;;;;;;;5073171;28;20392;-53
2021/04/06 02:40:08;;;;;;;7.75;3.25;;;;;;;;;;5073273;28;20194;-51
2021/04/06 02:42:38;;;;;;;5.95;3.45;;;;;;;;;;5073065;28;20185;-53
2021/04/06 02:45:13;;;;;;;10.02;4.07;;;;;;;;;;5072642;28;20575;-54
2021/04/06 02:48:06;;;;;;;5.13;3.63;;;;;;;;;;5073065;28;20814;-52
2021/04/06 02:50:33;;;;;;;11.07;4.50;;;;;;;;;;5073123;28;20162;-51
2021/04/06 02:53:01;;;;;;;7.10;4.97;;;;;;;;;;5072960;28;20166;-52
2021/04/06 02:55:27;;;;;;;4.97;3.33;;;;;;;;;;5072771;28;20170;-54
2021/04/06 02:57:54;;;;;;;7.18;3.88;;;;;;;;;;5072782;28;20533;-55
2021/04/06 03:00:30;;;;;;;8.93;4.18;;;;;;;;;;5072917;28;20227;-51
2021/04/06 03:02:56;;;;;;;6.80;4.60;;;;;;;;;;5072782;28;20165;-51
2021/04/06 03:05:28;;;;;;;8.15;4.80;;;;;;;;;;5072607;28;20201;-51
2021/04/06 03:07:54;;;;;;;19.48;5.45;;;;;;;;;;5072870;28;20597;-51
2021/04/06 03:10:21;;;;;;;13.85;6.93;;;;;;;;;;5072366;28;20241;-51
2021/04/06 03:12:50;;;;;;;12.35;6.70;;;;;;;;;;5072480;28;20166;-51
2021/04/06 03:15:28;;;;;;;13.48;6.30;;;;;;;;;;5072540;28;20182;-53
2021/04/06 03:17:55;;;;;;;14.25;6.57;;;;;;;;;;5072682;28;20177;-53
2021/04/06 03:20:25;;;;;;;16.10;6.75;;;;;;;;;;5072592;28;20219;-51
2021/04/06 03:22:52;;;;;;;17.92;7.20;;;;;;;;;;5072343;28;20612;-51
2021/04/06 03:25:19;;;;;;;11.82;6.97;;;;;;;;;;5071989;28;20536;-52
2021/04/06 03:27:46;;;;;;;16.45;7.65;;;;;;;;;;5072302;28;20170;-51
2021/04/06 03:30:13;;;;;;;19.02;8.25;;;;;;;;;;5072396;28;20291;-53
2021/04/06 03:32:41;;;;;;;23.55;8.68;;;;;;;;;;5072192;28;20166;-51
2021/04/06 03:35:07;;;;;;;14.55;7.32;;;;;;;;;;5071850;28;20186;-51
2021/04/06 03:37:35;;;;;;;14.63;7.47;;;;;;;;;;5072018;28;20166;-51
2021/04/06 03:40:01;;;;;;;19.13;6.80;;;;;;;;;;5072073;28;20585;-53
2021/04/06 03:42:28;;;;;;;12.80;6.65;;;;;;;;;;5071936;28;20166;-51
2021/04/06 03:45:13;;;;;;;12.10;6.25;;;;;;;;;;5071449;28;20255;-51
2021/04/06 03:48:11;;;;;;;7.88;5.25;;;;;;;;;;5071230;28;20580;-51
2021/04/06 03:50:41;;;;;;;16.92;5.75;;;;;;;;;;5037581;28;20204;-51
2021/04/06 03:53:09;;;;;;;20.15;5.60;;;;;;;;;;5071621;28;20190;-51
2021/04/06 03:55:35;;;;;;;10.55;5.75;;;;;;;;;;5071463;28;20170;-52
2021/04/06 03:58:23;;;;;;;10.57;5.13;;;;;;;;;;5071688;28;20787;-51
2021/04/06 04:00:49;;;;;;;11.90;5.40;;;;;;;;;;5071685;28;20249;-51
2021/04/06 04:03:18;;;;;;;10.83;5.30;;;;;;;;;;5071315;28;20277;-52
2021/04/06 04:05:44;;;;;;;15.35;6.70;;;;;;;;;;5071268;28;20432;-52
2021/04/06 04:08:10;;;;;;;10.97;5.23;;;;;;;;;;5071504;28;20223;-51
2021/04/06 04:10:36;;;;;;;14.47;5.00;;;;;;;;;;5071513;28;20404;-51
2021/04/06 04:13:02;;;;;;;12.13;5.30;;;;;;;;;;5071277;28;20896;-52
2021/04/06 04:15:28;;;;;;;11.23;5.57;;;;;;;;;;5071386;28;20408;-54
2021/04/06 04:17:54;;;;;;;15.73;5.30;;;;;;;;;;5071857;28;20405;-53
2021/04/06 04:20:21;;;;;;;11.27;4.00;;;;;;;;;;5070166;28;20174;-54
2021/04/06 04:22:48;;;;;;;8.82;5.05;;;;;;;;;;5071094;28;20427;-53
2021/04/06 04:25:14;;;;;;;11.18;5.07;;;;;;;;;;5070591;28;20205;-51
2021/04/06 04:27:41;;;;;;;7.80;4.25;;;;;;;;;;5071131;28;20158;-51
2021/04/06 04:30:07;;;;;;;9.07;4.22;;;;;;;;;;5071162;28;20166;-54
2021/04/06 04:32:33;;;;;;;4.20;3.60;;;;;;;;;;5071119;28;20198;-53
2021/04/06 04:34:59;;;;;;;7.33;4.80;;;;;;;;;;5070691;28;20262;-54
2021/04/06 04:37:25;;;;;;;9.90;5.00;;;;;;;;;;5070961;28;20466;-54
2021/04/06 04:39:51;;;;;;;10.88;4.57;;;;;;;;;;5070921;28;20673;-54
2021/04/06 04:42:17;;;;;;;8.00;4.70;;;;;;;;;;5071325;28;20185;-52
2021/04/06 04:44:44;;;;;;;5.97;3.60;;;;;;;;;;5069180;28;20237;-54
2021/04/06 04:47:10;;;;;;;10.80;3.78;;;;;;;;;;5070782;28;20162;-54
2021/04/06 04:49:36;;;;;;;5.72;3.70;;;;;;;;;;5070679;28;20173;-54
2021/04/06 04:52:02;;;;;;;8.18;4.40;;;;;;;;;;5070903;28;20220;-55
2021/04/06 04:54:28;;;;;;;4.80;3.60;;;;;;;;;;5070631;28;20232;-55
2021/04/06 04:56:54;;;;;;;6.40;4.00;;;;;;;;;;5070666;28;20178;-55
2021/04/06 04:59:20;;;;;;;4.20;3.80;;;;;;;;;;5070740;28;20404;-55
2021/04/06 05:01:46;;;;;;;8.20;4.13;;;;;;;;;;5070937;28;20173;-53
2021/04/06 05:04:12;;;;;;;5.65;4.03;;;;;;;;;;5070794;28;20684;-53
2021/04/06 05:06:39;;;;;;;8.10;5.03;;;;;;;;;;5070750;28;20166;-54
2021/04/06 05:09:05;;;;;;;18.23;4.15;;;;;;;;;;5071020;28;20435;-51
2021/04/06 05:11:31;;;;;;;10.93;3.70;;;;;;;;;;5070839;28;20169;-51
2021/04/06 05:13:57;;;;;;;3.88;3.40;;;;;;;;;;5070706;28;20273;-51
2021/04/06 05:16:23;;;;;;;15.02;4.10;;;;;;;;;;5070499;28;20641;-51
2021/04/06 05:18:49;;;;;;;10.87;3.53;;;;;;;;;;5070720;28;20167;-51
2021/04/06 05:21:15;;;;;;;9.93;3.53;;;;;;;;;;5070610;28;20892;-51
2021/04/06 05:23:41;;;;;;;3.30;3.00;;;;;;;;;;5087019;22;20459;-53
2021/04/06 05:26:08;;;;;;;8.60;3.17;;;;;;;;;;5087338;28;20235;-50
2021/04/06 05:28:34;;;;;;;3.50;3.20;;;;;;;;;;5090734;28;20173;-50
2021/04/06 05:31:00;;;;;;;6.20;4.30;;;;;;;;;;5090566;28;20173;-51
2021/04/06 05:33:26;;;;;;;9.60;4.10;;;;;;;;;;5090669;28;20442;-50
2021/04/06 05:35:52;;;;;;;6.05;3.88;;;;;;;;;;5094092;28;20426;-51
2021/04/06 05:38:18;;;;;;;6.38;3.30;;;;;;;;;;5094541;28;20170;-50
2021/04/06 05:40:44;;;;;;;5.60;3.75;;;;;;;;;;5094885;28;20520;-50
2021/04/06 05:43:13;;;;;;;6.65;3.80;;;;;;;;;;5094664;28;20165;-50
2021/04/06 05:45:40;;;;;;;3.95;3.65;;;;;;;;;;5094197;28;20295;-52
2021/04/06 05:48:08;;;;;;;4.95;3.30;;;;;;;;;;5094487;28;20197;-51
2021/04/06 05:50:34;;;;;;;4.95;4.32;;;;;;;;;;5094444;28;20161;-51
2021/04/06 05:53:01;;;;;;;7.77;4.90;;;;;;;;;;5094320;28;20195;-50
2021/04/06 05:55:27;;;;;;;5.22;4.50;;;;;;;;;;5093952;28;20506;-50
2021/04/06 05:57:55;;;;;;;6.75;4.30;;;;;;;;;;5094347;28;20173;-50
2021/04/06 06:00:22;;;;;;;7.30;4.10;;;;;;;;;;5094115;28;20725;-51
2021/04/06 06:02:48;;;;;;;6.40;5.75;;;;;;;;;;5094205;28;20244;-51
2021/04/06 06:05:16;;;;;;;7.15;6.45;;;;;;;;;;5093770;28;20850;-51
2021/04/06 06:07:42;;;;;;;8.32;6.88;;;;;;;;;;5093921;28;20176;-51
2021/04/06 06:10:27;;;;;;;12.35;7.07;;;;;;;;;;5094098;28;20540;-52
2021/04/06 06:12:53;;;;;;;8.07;6.07;;;;;;;;;;5094015;28;20166;-51
2021/04/06 06:15:19;;;;;;;6.68;5.72;;;;;;;;;;5093695;28;20192;-50
2021/04/06 06:18:01;;;;;;;7.93;5.37;;;;;;;;;;5093869;28;20541;-50
2021/04/06 06:20:27;;;;;;;7.72;4.72;;;;;;;;;;5094055;28;20398;-51
2021/04/06 06:22:53;;;;;;;4.85;4.30;;;;;;;;;;5093881;28;20264;-52
2021/04/06 06:25:19;;;;;;;6.43;5.20;;;;;;;;;;5093326;28;20292;-50
2021/04/06 06:27:47;;;;;;;10.63;5.93;;;;;;;;;;5093713;28;20400;-50
2021/04/06 06:30:30;;;;;;;8.02;6.32;;;;;;;;;;5093719;28;20158;-50
2021/04/06 06:33:19;;;;;;;11.80;7.05;;;;;;;;;;5093586;28;20529;-50
2021/04/06 06:35:49;;;;;;;13.88;7.93;;;;;;;;;;5080447;28;20217;-51
2021/04/06 06:38:15;;;;;;;18.00;7.47;;;;;;;;;;5093421;28;20528;-50
2021/04/06 06:40:42;;;;;;;21.05;9.35;;;;;;;;;;5093506;28;20209;-50
2021/04/06 06:43:11;;;;;;;22.30;10.48;;;;;;;;;;5093332;28;20597;-51
2021/04/06 06:45:37;;;;;;;27.95;9.65;;;;;;;;;;5091698;28;20197;-51
2021/04/06 06:48:03;;;;;;;23.80;11.43;;;;;;;;;;5093279;28;20205;-50
2021/04/06 06:50:29;;;;;;;19.75;10.35;;;;;;;;;;5093242;28;20202;-51
2021/04/06 06:52:55;;;;;;;30.27;11.13;;;;;;;;;;5093215;28;20177;-51
2021/04/06 06:55:23;;;;;;;22.73;10.68;;;;;;;;;;5092815;28;20424;-50
2021/04/06 06:57:50;;;;;;;22.23;11.95;;;;;;;;;;5093054;28;20674;-51
2021/04/06 07:00:18;;;;;;;25.67;11.55;;;;;;;;;;5093137;28;20644;-50
2021/04/06 07:02:44;;;;;;;21.35;9.32;;;;;;;;;;5092862;28;20169;-50
2021/04/06 07:05:11;;;;;;;16.50;10.38;;;;;;;;;;5091988;28;20204;-50
2021/04/06 07:07:47;;;;;;;14.20;7.25;;;;;;;;;;5092460;28;20170;-50
2021/04/06 07:10:13;;;;;;;10.05;6.88;;;;;;;;;;5092275;28;20334;-50
2021/04/06 07:12:40;;;;;;;9.23;5.40;;;;;;;;;;5092387;28;20166;-51
2021/04/06 07:15:06;;;;;;;6.07;4.20;;;;;;;;;;5092648;28;20195;-51
2021/04/06 07:17:33;;;;;;;6.55;4.38;;;;;;;;;;5092739;28;20563;-51
2021/04/06 07:20:00;;;;;;;4.68;4.00;;;;;;;;;;5092781;28;20219;-52
2021/04/06 07:22:26;;;;;;;5.40;4.22;;;;;;;;;;5092588;28;20170;-51
2021/04/06 07:24:52;;;;;;;5.85;4.32;;;;;;;;;;5092321;28;20206;-51
2021/04/06 07:27:20;;;;;;;5.37;3.53;;;;;;;;;;5092346;28;20633;-51
2021/04/06 07:29:46;;;;;;;5.43;4.30;;;;;;;;;;5092648;28;20407;-51
2021/04/06 07:32:13;;;;;;;6.13;4.25;;;;;;;;;;5092314;28;20181;-51
2021/04/06 07:34:40;;;;;;;5.68;4.45;;;;;;;;;;5092306;28;20186;-51
2021/04/06 07:37:06;;;;;;;7.65;4.05;;;;;;;;;;5091922;28;20169;-51
2021/04/06 07:39:33;;;;;;;6.32;4.40;;;;;;;;;;5092329;28;20539;-51
2021/04/06 07:41:59;;;;;;;13.57;5.50;;;;;;;;;;5092341;28;20187;-51
2021/04/06 07:44:25;;;;;;;10.88;5.90;;;;;;;;;;5094292;28;20200;-51
2021/04/06 07:46:52;;;;;;;13.80;7.50;;;;;;;;;;5100959;28;20178;-50
2021/04/06 07:49:21;;;;;;;19.42;8.35;;;;;;;;;;5092043;28;20237;-51
2021/04/06 07:51:47;;;;;;;19.98;9.00;;;;;;;;;;5092057;28;20628;-52
2021/04/06 07:54:16;;;;;;;19.93;10.20;;;;;;;;;;5092069;28;20202;-51
2021/04/06 07:56:45;;;;;;;22.15;11.10;;;;;;;;;;5091186;28;20403;-52
2021/04/06 07:59:20;;;;;;;15.88;11.35;;;;;;;;;;5091214;28;20183;-51
2021/04/06 08:01:49;;;;;;;14.35;10.15;;;;;;;;;;5091521;28;20173;-50
2021/04/06 08:04:16;;;;;;;24.58;10.73;;;;;;;;;;5091490;28;20612;-52
2021/04/06 08:06:45;;;;;;;23.33;12.25;;;;;;;;;;5091792;28;20550;-51
2021/04/06 08:09:26;;;;;;;23.23;10.73;;;;;;;;;;5091820;28;20160;-51
2021/04/06 08:12:01;;;;;;;13.90;9.70;;;;;;;;;;5090712;28;20660;-51
2021/04/06 08:14:28;;;;;;;18.43;11.07;;;;;;;;;;5091272;28;20506;-51
2021/04/06 08:17:13;;;;;;;18.40;9.80;;;;;;;;;;5091293;28;20402;-52
2021/04/06 08:19:48;;;;;;;14.33;10.17;;;;;;;;;;5091457;28;20920;-51
2021/04/06 08:22:18;;;;;;;12.97;8.63;;;;;;;;;;5091630;28;20969;-51
2021/04/06 08:24:45;;;;;;;14.90;9.13;;;;;;;;;;5091167;28;20476;-51
2021/04/06 08:27:29;;;;;;;14.80;9.13;;;;;;;;;;5091094;28;20398;-51
2021/04/06 08:30:15;;;;;;;16.17;9.90;;;;;;;;;;5091295;28;20408;-51
2021/04/06 08:32:42;;;;;;;17.43;9.77;;;;;;;;;;5091310;28;20841;-51
2021/04/06 08:35:08;;;;;;;15.03;10.27;;;;;;;;;;5090856;28;20425;-50
2021/04/06 08:37:37;;;;;;;15.33;9.60;;;;;;;;;;5091182;28;20811;-50
2021/04/06 08:40:04;;;;;;;18.80;11.20;;;;;;;;;;5091471;28;20977;-50
2021/04/06 08:42:30;;;;;;;16.00;9.93;;;;;;;;;;5091285;28;20425;-50
2021/04/06 08:44:57;;;;;;;20.80;10.00;;;;;;;;;;5091087;28;20468;-50
2021/04/06 08:47:39;;;;;;;13.18;9.40;;;;;;;;;;5091377;28;20978;-50
2021/04/06 08:50:07;;;;;;;12.93;8.38;;;;;;;;;;5091220;28;20162;-53
2021/04/06 08:52:33;;;;;;;14.60;8.63;;;;;;;;;;5091283;28;20162;-51
2021/04/06 08:55:13;;;;;;;13.90;8.93;;;;;;;;;;5090840;28;20717;-50
2021/04/06 08:57:39;;;;;;;13.50;7.40;;;;;;;;;;5090964;28;20508;-50
2021/04/06 09:00:06;;;;;;;20.00;6.88;;;;;;;;;;5090904;28;20312;-50
2021/04/06 09:02:32;;;;;;;14.30;6.20;;;;;;;;;;5090765;28;20229;-51
2021/04/06 09:04:58;;;;;;;16.07;5.77;;;;;;;;;;5090639;28;20472;-51
2021/04/06 09:07:29;;;;;;;9.70;5.00;;;;;;;;;;5090752;28;20407;-51
2021/04/06 09:09:55;;;;;;;11.90;5.90;;;;;;;;;;5090009;28;20396;-51
2021/04/06 09:12:22;;;;;;;11.10;5.50;;;;;;;;;;5090933;28;20431;-51
2021/04/06 09:14:49;;;;;;;19.27;5.20;;;;;;;;;;5090733;28;20415;-51
2021/04/06 09:17:16;;;;;;;9.43;5.30;;;;;;;;;;5090388;28;20413;-51
2021/04/06 09:19:42;;;;;;;10.80;4.67;;;;;;;;;;5090789;28;20403;-52
2021/04/06 09:22:09;;;;;;;9.47;4.43;;;;;;;;;;5090621;28;20397;-52
2021/04/06 09:24:35;;;;;;;9.60;4.10;;;;;;;;;;5090485;28;20960;-50
2021/04/06 09:27:02;;;;;;;9.98;5.07;;;;;;;;;;5090374;28;20450;-50
2021/04/06 09:29:29;;;;;;;6.57;3.25;;;;;;;;;;5090636;28;20166;-52
2021/04/06 09:31:59;;;;;;;4.28;3.88;;;;;;;;;;5090466;28;20215;-50
2021/04/06 09:34:30;;;;;;;5.47;3.72;;;;;;;;;;5090635;28;20565;-50
2021/04/06 09:36:57;;;;;;;7.43;3.55;;;;;;;;;;5090315;28;20637;-50
2021/04/06 09:39:24;;;;;;;8.23;3.45;;;;;;;;;;5092178;28;20180;-52
2021/04/06 09:41:50;;;;;;;10.10;3.38;;;;;;;;;;5100204;28;20273;-51
2021/04/06 09:44:18;;;;;;;6.88;3.58;;;;;;;;;;5090325;28;20201;-51
2021/04/06 09:46:46;;;;;;;11.80;2.80;;;;;;;;;;5090351;28;20176;-51
2021/04/06 09:49:12;;;;;;;4.93;2.00;;;;;;;;;;5090615;28;20505;-50
2021/04/06 09:51:39;;;;;;;5.60;2.30;;;;;;;;;;5090515;28;20748;-51
2021/04/06 09:54:06;;;;;;;3.80;2.23;;;;;;;;;;5090321;28;20422;-51
2021/04/06 09:56:34;;;;;;;2.83;1.57;;;;;;;;;;5090130;28;20547;-51
2021/04/06 09:59:00;;;;;;;8.93;3.10;;;;;;;;;;5090317;28;20407;-50
2021/04/06 10:01:27;;;;;;;5.23;2.37;;;;;;;;;;5090394;28;20440;-50
2021/04/06 10:03:55;;;;;;;2.77;1.90;;;;;;;;;;5090060;28;20862;-51
2021/04/06 10:06:21;;;;;;;12.07;3.30;;;;;;;;;;5090138;28;20415;-53
2021/04/06 10:08:47;;;;;;;3.30;1.90;;;;;;;;;;5090214;28;20398;-51
2021/04/06 10:11:22;;;;;;;4.77;1.90;;;;;;;;;;5090172;28;20425;-53
2021/04/06 10:13:48;;;;;;;4.70;2.90;;;;;;;;;;5090293;28;20463;-51
2021/04/06 10:16:17;;;;;;;12.90;3.20;;;;;;;;;;5090031;28;20404;-51
2021/04/06 10:18:44;;;;;;;3.27;2.37;;;;;;;;;;5090314;28;20468;-51
2021/04/06 10:21:18;;;;;;;7.90;2.60;;;;;;;;;;5092887;28;20431;-50
2021/04/06 10:23:44;;;;;;;4.13;2.27;;;;;;;;;;5093744;28;20465;-51
2021/04/06 10:26:17;;;;;;;3.97;2.00;;;;;;;;;;5093537;28;20447;-52
2021/04/06 10:28:43;;;;;;;4.03;2.10;;;;;;;;;;5094061;28;20826;-51
2021/04/06 10:31:09;;;;;;;7.07;3.53;;;;;;;;;;5093749;28;20415;-51
2021/04/06 10:33:36;;;;;;;7.20;3.10;;;;;;;;;;5093715;28;20485;-50
2021/04/06 10:36:07;;;;;;;4.47;2.80;;;;;;;;;;5093213;28;20825;-52
2021/04/06 10:38:35;;;;;;;5.27;2.63;;;;;;;;;;5093577;28;21545;-51
2021/04/06 10:41:16;;;;;;;7.40;2.40;;;;;;;;;;5093652;28;20415;-52
2021/04/06 10:43:44;;;;;;;4.20;2.40;;;;;;;;;;5093339;28;20414;-52
2021/04/06 10:46:10;;;;;;;3.97;2.00;;;;;;;;;;5093026;28;20460;-53
2021/04/06 10:48:37;;;;;;;3.90;2.07;;;;;;;;;;5093351;28;20405;-53
2021/04/06 10:51:14;;;;;;;4.73;2.27;;;;;;;;;;5093179;28;20400;-51
2021/04/06 10:53:47;;;;;;;3.47;1.80;;;;;;;;;;5093274;28;20403;-50
2021/04/06 10:56:33;;;;;;;3.90;2.13;;;;;;;;;;5092916;28;20434;-51
2021/04/06 10:59:01;;;;;;;1.60;1.50;;;;;;;;;;5093059;28;20414;-51
2021/04/06 11:01:47;;;;;;;2.20;1.50;;;;;;;;;;5092908;28;20400;-51
2021/04/06 11:04:15;;;;;;;2.67;2.00;;;;;;;;;;5092754;28;20451;-51
2021/04/06 11:06:46;;;;;;;5.67;2.20;;;;;;;;;;5092655;28;20554;-51
2021/04/06 11:09:16;;;;;;;7.30;2.00;;;;;;;;;;5093000;28;20426;-52
2021/04/06 11:11:43;;;;;;;2.87;1.80;;;;;;;;;;5092825;28;20407;-51
2021/04/06 11:14:10;;;;;;;3.00;2.30;;;;;;;;;;5092823;28;20476;-52
2021/04/06 11:16:38;;;;;;;7.63;2.80;;;;;;;;;;5092557;28;20404;-52
2021/04/06 11:19:05;;;;;;;2.17;1.97;;;;;;;;;;5092509;28;20773;-51
2021/04/06 11:21:33;;;;;;;3.53;1.70;;;;;;;;;;5092270;28;20628;-50
2021/04/06 11:23:59;;;;;;;2.30;1.70;;;;;;;;;;5092289;28;20944;-51
2021/04/06 11:26:25;;;;;;;3.53;1.70;;;;;;;;;;5092317;28;20435;-51
2021/04/06 11:28:51;;;;;;;3.40;1.87;;;;;;;;;;5092428;28;20431;-52
2021/04/06 11:31:17;;;;;;;3.30;1.43;;;;;;;;;;5092307;28;20404;-52
2021/04/06 11:33:43;;;;;;;3.67;1.50;;;;;;;;;;5091916;28;20400;-52
2021/04/06 11:36:09;;;;;;;2.50;1.73;;;;;;;;;;5092141;28;20482;-52
2021/04/06 11:38:35;;;;;;;5.03;1.67;;;;;;;;;;5092256;28;20482;-51
2021/04/06 11:41:01;;;;;;;1.83;1.70;;;;;;;;;;5092078;28;20423;-50
2021/04/06 11:43:27;;;;;;;3.50;1.90;;;;;;;;;;5092064;28;21210;-51
2021/04/06 11:45:53;;;;;;;2.40;2.13;;;;;;;;;;5091870;28;20481;-52
2021/04/06 11:48:19;;;;;;;3.30;2.03;;;;;;;;;;5092091;28;20421;-51
2021/04/06 11:50:46;;;;;;;2.90;2.20;;;;;;;;;;5092117;28;20410;-52
2021/04/06 11:53:12;;;;;;;5.70;2.27;;;;;;;;;;5092070;28;20406;-51
2021/04/06 11:55:38;;;;;;;5.53;2.50;;;;;;;;;;5091573;28;20423;-51
2021/04/06 11:58:04;;;;;;;3.37;2.20;;;;;;;;;;5092069;28;20415;-50
2021/04/06 12:00:30;;;;;;;6.00;1.90;;;;;;;;;;5091815;28;20404;-51
2021/04/06 12:02:56;;;;;;;4.07;1.70;;;;;;;;;;5092253;28;20468;-51
2021/04/06 12:05:22;;;;;;;2.23;1.60;;;;;;;;;;5091603;28;20455;-50
2021/04/06 12:07:48;;;;;;;3.23;1.80;;;;;;;;;;5092200;28;20403;-51
2021/04/06 12:12:47;;;;;;;2.15;1.70;;;;;;;;;;5069602;28;20552;-60
2021/04/06 12:15:13;;;;;;;5.05;2.80;;;;;;;;;;5069944;28;20262;-62
2021/04/06 12:17:39;;;;;;;4.15;2.88;;;;;;;;;;5070850;28;20198;-61
2021/04/06 12:20:05;;;;;;;4.60;3.30;;;;;;;;;;5071580;28;20166;-61
2021/04/06 12:22:31;;;;;;;3.30;2.53;;;;;;;;;;5071259;28;20656;-61
2021/04/06 12:24:57;;;;;;;2.83;2.63;;;;;;;;;;5071206;28;20200;-60
2021/04/06 12:27:23;;;;;;;3.60;3.30;;;;;;;;;;5071270;28;20434;-60
2021/04/06 12:29:49;;;;;;;3.20;2.90;;;;;;;;;;5071239;28;20400;-60
2021/04/06 12:32:15;;;;;;;2.87;2.77;;;;;;;;;;5071084;28;20418;-61
2021/04/06 12:34:41;;;;;;;2.03;1.93;;;;;;;;;;5071251;28;20447;-62
2021/04/06 12:37:07;;;;;;;2.97;2.73;;;;;;;;;;5070710;28;20432;-61
2021/04/06 12:39:33;;;;;;;2.80;2.60;;;;;;;;;;5071088;28;20396;-61
2021/04/06 12:41:59;;;;;;;4.70;2.30;;;;;;;;;;5070946;28;20456;-62
2021/04/06 12:44:25;;;;;;;2.40;1.97;;;;;;;;;;5071952;28;20494;-60
2021/04/06 12:46:51;;;;;;;5.37;2.30;;;;;;;;;;5070382;28;20906;-62
2021/04/06 12:49:17;;;;;;;3.90;2.77;;;;;;;;;;5070849;28;20507;-60
2021/04/06 12:51:43;;;;;;;3.30;3.00;;;;;;;;;;5070792;28;20423;-60
2021/04/06 12:54:10;;;;;;;7.30;3.17;;;;;;;;;;5070723;28;20479;-60
2021/04/06 12:56:36;;;;;;;3.17;2.97;;;;;;;;;;5070528;28;20404;-61
2021/04/06 12:59:02;;;;;;;4.10;2.70;;;;;;;;;;5070678;28;20402;-61
2021/04/06 13:01:28;;;;;;;2.90;2.70;;;;;;;;;;5070734;28;20480;-60
2021/04/06 13:03:54;;;;;;;3.00;2.70;;;;;;;;;;5070632;28;20541;-60
2021/04/06 13:06:20;;;;;;;3.03;2.20;;;;;;;;;;5070537;28;20879;-59
2021/04/06 13:08:46;;;;;;;4.17;2.90;;;;;;;;;;5070505;28;20450;-60
2021/04/06 13:11:12;;;;;;;2.67;1.87;;;;;;;;;;5070501;28;20952;-59
2021/04/06 13:13:38;;;;;;;2.70;1.80;;;;;;;;;;5070530;28;20917;-61
2021/04/06 13:16:04;;;;;;;2.70;2.07;;;;;;;;;;5070429;28;20394;-61
2021/04/06 13:18:31;;;;;;;2.60;2.40;;;;;;;;;;5070804;28;20456;-61
2021/04/06 13:20:57;;;;;;;3.07;2.77;;;;;;;;;;5070452;28;20778;-60
2021/04/06 13:23:23;;;;;;;3.70;3.40;;;;;;;;;;5070483;28;20516;-60
2021/04/06 13:25:49;;;;;;;5.00;4.53;;;;;;;;;;5068768;28;20479;-61
2021/04/06 13:28:15;;;;;;;3.90;3.70;;;;;;;;;;5070521;28;20435;-61
2021/04/06 13:30:41;;;;;;;4.47;4.17;;;;;;;;;;5070244;28;20467;-62
2021/04/06 13:33:07;;;;;;;6.40;4.43;;;;;;;;;;5070518;28;20907;-61
2021/04/06 13:35:33;;;;;;;2.90;2.70;;;;;;;;;;5070118;28;20405;-60
2021/04/06 13:37:59;;;;;;;4.53;3.10;;;;;;;;;;5070362;28;20785;-61
2021/04/06 13:40:25;;;;;;;2.80;2.60;;;;;;;;;;5070410;28;20417;-62
2021/04/06 13:42:52;;;;;;;2.90;2.63;;;;;;;;;;5070250;28;20434;-60
2021/04/06 13:45:20;;;;;;;3.00;2.53;;;;;;;;;;5069985;28;20542;-61
2021/04/06 13:47:46;;;;;;;3.17;2.10;;;;;;;;;;5070312;28;20413;-60
2021/04/06 13:50:13;;;;;;;6.40;2.37;;;;;;;;;;5070257;28;20507;-59
2021/04/06 13:52:39;;;;;;;2.67;2.00;;;;;;;;;;5070270;28;20396;-61
2021/04/06 13:55:06;;;;;;;4.23;2.20;;;;;;;;;;5070964;28;20401;-61
2021/04/06 13:57:32;;;;;;;2.43;1.77;;;;;;;;;;5074089;28;20492;-61
2021/04/06 13:59:58;;;;;;;2.60;2.27;;;;;;;;;;5074397;28;20411;-61
2021/04/06 14:02:24;;;;;;;3.20;2.97;;;;;;;;;;5074238;28;20458;-60
2021/04/06 14:04:50;;;;;;;2.93;2.50;;;;;;;;;;5074035;28;20793;-60
2021/04/06 14:07:16;;;;;;;5.73;2.70;;;;;;;;;;5073662;28;20433;-60
2021/04/06 14:09:42;;;;;;;4.60;3.63;;;;;;;;;;5073871;28;20771;-59
2021/04/06 14:12:08;;;;;;;7.00;4.07;;;;;;;;;;5073821;28;20443;-59
2021/04/06 14:14:34;;;;;;;3.93;3.53;;;;;;;;;;5073745;28;20545;-61
2021/04/06 14:17:00;;;;;;;4.10;3.70;;;;;;;;;;5073585;28;20476;-61
2021/04/06 14:19:26;;;;;;;2.90;2.60;;;;;;;;;;5073576;28;20409;-61
2021/04/06 14:21:52;;;;;;;3.13;2.30;;;;;;;;;;5072161;28;20464;-61
2021/04/06 14:24:18;;;;;;;2.20;2.10;;;;;;;;;;5073521;28;20457;-63
2021/04/06 14:26:44;;;;;;;2.80;2.47;;;;;;;;;;5073212;28;20401;-61
2021/04/06 14:29:10;;;;;;;2.88;2.67;;;;;;;;;;5073489;28;20895;-60
2021/04/06 14:31:37;;;;;;;8.02;2.33;;;;;;;;;;5073313;28;20188;-61
2021/04/06 14:34:03;;;;;;;4.40;2.67;;;;;;;;;;5073364;28;20538;-59
2021/04/06 14:36:29;;;;;;;1.90;1.80;;;;;;;;;;5073021;28;20168;-59
2021/04/06 14:38:55;;;;;;;1.67;1.58;;;;;;;;;;5073352;28;20172;-61
2021/04/06 14:41:21;;;;;;;2.03;1.90;;;;;;;;;;5073161;28;20182;-60
2021/04/06 14:43:47;;;;;;;2.67;2.47;;;;;;;;;;5073198;28;20172;-60
2021/04/06 14:46:14;;;;;;;1.65;1.30;;;;;;;;;;5072921;28;20411;-60